A J Mc Allister — WDB5819 — position and weather

sailwx.info

Track history (hours):
 
Tides and Currents Weather Stations Pressure Air Temp Water Temp Dewpoint Dewpoint Depression Visibility Wind Speed Wind Dir Waves Ship Positions

A J Mc Allister

Owner: MCALLISTER TOWING & TRANSPORTATION INC, NEW YORK, NY. More information available from US FCC via Universal Licensing System and Coast Guard Vessel Documentation Center.

Last reported at 2017-Oct-18 11:00 UTC. Time now 2017-Oct-18 11:20 UTC.
Position N 36°53' W 076°21'.

Length 30 m; draft 5 m.

Type: Tug. MMSI: 366913820.

Date/timePositionNaut miles runAvg speedWind from/ knotsBaromVisibWave heightAir tempDewpointWater temp
2017-Oct-18 11:00N 36°53' W 076°21'0 0.1
2017-Oct-18 10:16N 36°53' W 076°21'0 0.0
2017-Oct-17 03:13N 36°53' W 076°21'2 0.1
2017-Oct-16 12:15N 36°51' W 076°19'2 8.0
2017-Oct-16 12:00N 36°50' W 076°18'3 6.2
2017-Oct-16 11:30N 36°47' W 076°18'0 0.0
2017-Oct-16 11:00N 36°47' W 076°18'1 1.2
2017-Oct-16 10:30N 36°47' W 076°18'2 3.9
2017-Oct-16 10:00N 36°49' W 076°17'6 3.1
2017-Oct-16 07:59N 36°55' W 076°20'0 0.0
2017-Oct-15 19:59N 36°55' W 076°20'2 0.2
2017-Oct-15 06:13N 36°53' W 076°21'2 7.4
2017-Oct-15 05:57N 36°52' W 076°19'2 3.6
2017-Oct-15 05:30N 36°50' W 076°17'0 0.0
2017-Oct-15 05:00N 36°50' W 076°17'0 0.0
2017-Oct-15 04:30N 36°50' W 076°17'0 0.0
2017-Oct-15 04:00N 36°50' W 076°17'0 0.0
2017-Oct-15 03:30N 36°50' W 076°17'0 0.0
2017-Oct-15 03:00N 36°50' W 076°17'0 0.0
2017-Oct-15 02:30N 36°50' W 076°17'0 0.0
2017-Oct-15 02:00N 36°50' W 076°17'0 0.0
2017-Oct-15 01:30N 36°50' W 076°17'0 0.0
2017-Oct-15 01:00N 36°50' W 076°17'0 0.0
2017-Oct-15 00:30N 36°50' W 076°17'0 0.0
2017-Oct-15 00:00N 36°50' W 076°17'0 0.0
2017-Oct-14 21:34N 36°50' W 076°17'0 0.1
2017-Oct-14 21:30N 36°50' W 076°17'0 0.0
2017-Oct-14 21:00N 36°50' W 076°17'0 0.0
2017-Oct-14 20:30N 36°50' W 076°17'0 0.0
2017-Oct-14 20:00N 36°50' W 076°17'0 0.0
2017-Oct-14 19:30N 36°50' W 076°17'0 0.0
2017-Oct-14 19:00N 36°50' W 076°17'0 0.0
2017-Oct-14 18:30N 36°50' W 076°17'0 0.0
2017-Oct-14 18:00N 36°50' W 076°17'0 0.0
2017-Oct-14 17:28N 36°50' W 076°17'0 0.0
2017-Oct-14 17:00N 36°50' W 076°17'0 0.0
2017-Oct-14 16:30N 36°50' W 076°17'3 1.9
2017-Oct-14 14:56N 36°52' W 076°20'1 1.8
2017-Oct-14 14:30N 36°52' W 076°21'1 0.2
2017-Oct-14 09:15N 36°52' W 076°20'1 0.3
2017-Oct-14 06:19N 36°53' W 076°21'2 0.1
2017-Oct-13 15:44N 36°51' W 076°19'2 6.5
2017-Oct-13 15:30N 36°50' W 076°17'0 0.0
2017-Oct-13 15:00N 36°50' W 076°17'0 0.0
2017-Oct-13 14:30N 36°50' W 076°17'2 0.6
2017-Oct-13 10:49N 36°51' W 076°20'1 0.9
2017-Oct-13 10:08N 36°52' W 076°19'0 1.8
2017-Oct-13 10:00N 36°52' W 076°19'1 1.8
2017-Oct-13 09:17N 36°53' W 076°21'0 0.7
2017-Oct-13 08:56N 36°53' W 076°21'  
Track history (hours):
 
Tides and Currents Weather Stations Pressure Air Temp Water Temp Dewpoint Dewpoint Depression Visibility Wind Speed Wind Dir Waves Ship Positions

A J Mc Allister

Owner: MCALLISTER TOWING & TRANSPORTATION INC, NEW YORK, NY. More information available from US FCC via Universal Licensing System and Coast Guard Vessel Documentation Center.

Last reported at 2017-Oct-18 11:00 UTC. Time now 2017-Oct-18 11:20 UTC.
Position N 36°53' W 076°21'.

Length 30 m; draft 5 m.

Type: Tug. MMSI: 366913820.

Date/timePositionNaut miles runAvg speedWind from/ knotsBaromVisibWave heightAir tempDewpointWater temp
2017-Oct-18 11:00N 36°53' W 076°21'0 0.1
2017-Oct-18 10:16N 36°53' W 076°21'0 0.0
2017-Oct-17 03:13N 36°53' W 076°21'2 0.1
2017-Oct-16 12:15N 36°51' W 076°19'2 8.0
2017-Oct-16 12:00N 36°50' W 076°18'3 6.2
2017-Oct-16 11:30N 36°47' W 076°18'0 0.0
2017-Oct-16 11:00N 36°47' W 076°18'1 1.2
2017-Oct-16 10:30N 36°47' W 076°18'2 3.9
2017-Oct-16 10:00N 36°49' W 076°17'6 3.1
2017-Oct-16 07:59N 36°55' W 076°20'0 0.0
2017-Oct-15 19:59N 36°55' W 076°20'2 0.2
2017-Oct-15 06:13N 36°53' W 076°21'2 7.4
2017-Oct-15 05:57N 36°52' W 076°19'2 3.6
2017-Oct-15 05:30N 36°50' W 076°17'0 0.0
2017-Oct-15 05:00N 36°50' W 076°17'0 0.0
2017-Oct-15 04:30N 36°50' W 076°17'0 0.0
2017-Oct-15 04:00N 36°50' W 076°17'0 0.0
2017-Oct-15 03:30N 36°50' W 076°17'0 0.0
2017-Oct-15 03:00N 36°50' W 076°17'0 0.0
2017-Oct-15 02:30N 36°50' W 076°17'0 0.0
2017-Oct-15 02:00N 36°50' W 076°17'0 0.0
2017-Oct-15 01:30N 36°50' W 076°17'0 0.0
2017-Oct-15 01:00N 36°50' W 076°17'0 0.0
2017-Oct-15 00:30N 36°50' W 076°17'0 0.0
2017-Oct-15 00:00N 36°50' W 076°17'0 0.0
2017-Oct-14 21:34N 36°50' W 076°17'0 0.1
2017-Oct-14 21:30N 36°50' W 076°17'0 0.0
2017-Oct-14 21:00N 36°50' W 076°17'0 0.0
2017-Oct-14 20:30N 36°50' W 076°17'0 0.0
2017-Oct-14 20:00N 36°50' W 076°17'0 0.0
2017-Oct-14 19:30N 36°50' W 076°17'0 0.0
2017-Oct-14 19:00N 36°50' W 076°17'0 0.0
2017-Oct-14 18:30N 36°50' W 076°17'0 0.0
2017-Oct-14 18:00N 36°50' W 076°17'0 0.0
2017-Oct-14 17:28N 36°50' W 076°17'0 0.0
2017-Oct-14 17:00N 36°50' W 076°17'0 0.0
2017-Oct-14 16:30N 36°50' W 076°17'3 1.9
2017-Oct-14 14:56N 36°52' W 076°20'1 1.8
2017-Oct-14 14:30N 36°52' W 076°21'1 0.2
2017-Oct-14 09:15N 36°52' W 076°20'1 0.3
2017-Oct-14 06:19N 36°53' W 076°21'2 0.1
2017-Oct-13 15:44N 36°51' W 076°19'2 6.5
2017-Oct-13 15:30N 36°50' W 076°17'0 0.0
2017-Oct-13 15:00N 36°50' W 076°17'0 0.0
2017-Oct-13 14:30N 36°50' W 076°17'2 0.6
2017-Oct-13 10:49N 36°51' W 076°20'1 0.9
2017-Oct-13 10:08N 36°52' W 076°19'0 1.8
2017-Oct-13 10:00N 36°52' W 076°19'1 1.8
2017-Oct-13 09:17N 36°53' W 076°21'0 0.7
2017-Oct-13 08:56N 36°53' W 076°21'  

Dump ship's entire track history